createdAt,value
2019-06-10T00:03:05.638Z,15.70
2019-06-10T00:08:11.745Z,15.80
2019-06-10T00:13:16.722Z,15.80
2019-06-10T00:18:35.462Z,15.80
2019-06-10T00:23:27.355Z,15.80
2019-06-10T00:28:31.776Z,15.80
2019-06-10T00:33:36.461Z,15.80
2019-06-10T00:38:41.281Z,15.80
2019-06-10T00:43:45.844Z,15.80
2019-06-10T00:48:50.885Z,15.80
2019-06-10T00:53:55.679Z,15.90
2019-06-10T00:59:01.033Z,15.90
2019-06-10T01:04:07.045Z,15.90
2019-06-10T01:09:14.821Z,15.90
2019-06-10T01:14:21.366Z,15.90
2019-06-10T01:19:25.371Z,15.90
2019-06-10T01:24:31.448Z,15.90
2019-06-10T01:29:36.029Z,15.90
2019-06-10T01:34:41.659Z,15.90
2019-06-10T01:39:46.333Z,15.90
2019-06-10T01:44:50.824Z,15.90
2019-06-10T01:49:55.398Z,15.80
2019-06-10T01:55:01.530Z,15.80
2019-06-10T02:00:13.421Z,15.90
2019-06-10T02:05:16.675Z,15.90
2019-06-10T02:10:23.019Z,15.90
2019-06-10T02:15:27.664Z,15.90
2019-06-10T02:20:32.080Z,15.90
2019-06-10T02:25:36.486Z,15.80
2019-06-10T02:30:50.233Z,15.80
2019-06-10T02:35:49.203Z,15.90
2019-06-10T02:40:54.044Z,16.00
2019-06-10T02:45:58.685Z,16.00
2019-06-10T02:51:06.452Z,16.10
2019-06-10T02:56:12.609Z,16.10
2019-06-10T03:01:19.366Z,16.10
2019-06-10T03:06:31.842Z,16.10
2019-06-10T03:11:35.718Z,16.10
2019-06-10T03:16:42.159Z,16.10
2019-06-10T03:21:46.427Z,16.00
2019-06-10T03:26:52.214Z,16.10
2019-06-10T03:31:57.000Z,16.20
2019-06-10T03:37:02.439Z,16.20
2019-06-10T03:42:07.086Z,16.20
2019-06-10T03:47:12.155Z,16.20
2019-06-10T03:52:17.124Z,16.20
2019-06-10T03:57:23.791Z,16.20
2019-06-10T04:02:28.508Z,16.20
2019-06-10T04:07:34.216Z,16.20
2019-06-10T04:12:38.948Z,16.30
2019-06-10T04:17:43.531Z,16.30
2019-06-10T04:22:48.043Z,16.30
2019-06-10T04:27:52.616Z,16.30
2019-06-10T04:32:57.027Z,16.30
2019-06-10T04:38:02.558Z,16.40
2019-06-10T04:43:07.244Z,16.20
2019-06-10T04:48:12.446Z,16.10
2019-06-10T04:53:17.208Z,16.20
2019-06-10T04:58:24.484Z,16.30
2019-06-10T05:03:28.362Z,16.30
2019-06-10T05:08:34.248Z,16.40
2019-06-10T05:13:38.675Z,16.40
2019-06-10T05:18:43.235Z,16.50
2019-06-10T05:23:47.745Z,16.50
2019-06-10T05:28:52.533Z,16.50
2019-06-10T05:33:57.032Z,16.40
2019-06-10T05:39:02.780Z,16.40
2019-06-10T05:44:07.405Z,16.40
2019-06-10T05:49:12.506Z,16.40
2019-06-10T05:54:17.321Z,16.30
2019-06-10T05:59:23.015Z,16.30
2019-06-10T06:04:28.068Z,16.40
2019-06-10T06:09:35.141Z,16.50
2019-06-10T06:14:38.670Z,16.50
2019-06-10T06:19:43.421Z,16.50
2019-06-10T06:24:47.995Z,16.60
2019-06-10T06:29:52.577Z,16.50
2019-06-10T06:34:57.044Z,16.40
2019-06-10T06:40:02.838Z,16.40
2019-06-10T06:45:08.364Z,16.30
2019-06-10T06:50:14.524Z,16.30
2019-06-10T06:55:19.266Z,16.10
2019-06-10T07:00:53.177Z,16.10
2019-06-10T07:05:43.374Z,16.00
2019-06-10T07:10:48.678Z,16.00
2019-06-10T07:15:53.586Z,16.00
2019-06-10T07:20:58.180Z,16.00
2019-06-10T07:26:02.769Z,16.10
2019-06-10T07:31:19.911Z,16.10
2019-06-10T07:36:13.403Z,16.20
2019-06-10T07:41:18.015Z,16.30
2019-06-10T07:46:23.131Z,16.40
2019-06-10T07:51:27.841Z,16.40
2019-06-10T07:56:38.234Z,16.40
2019-06-10T08:01:43.724Z,16.50
2019-06-10T08:06:45.850Z,16.50
2019-06-10T08:11:53.141Z,16.60
2019-06-10T08:16:56.705Z,16.70
2019-06-10T08:22:02.950Z,16.80
2019-06-10T08:27:07.714Z,16.90
2019-06-10T08:32:13.089Z,16.80
2019-06-10T08:37:18.055Z,16.80
2019-06-10T08:42:23.319Z,17.00
2019-06-10T08:47:28.844Z,17.10
2019-06-10T08:52:48.867Z,17.10
2019-06-10T08:57:42.947Z,17.10
2019-06-10T09:02:49.884Z,17.10
2019-06-10T09:07:54.470Z,17.20
2019-06-10T09:12:58.616Z,17.30
2019-06-10T09:18:03.184Z,17.20
2019-06-10T09:23:21.567Z,17.30
2019-06-10T09:28:15.264Z,17.30
2019-06-10T09:33:22.379Z,17.20
2019-06-10T09:38:26.408Z,17.40
2019-06-10T09:43:33.272Z,17.50
2019-06-10T09:48:37.252Z,17.50
2019-06-10T09:53:50.295Z,17.40
2019-06-10T09:58:50.818Z,17.40
2019-06-10T10:03:59.995Z,17.60
2019-06-10T10:09:03.998Z,17.50
2019-06-10T10:14:10.639Z,17.40
2019-06-10T10:19:15.056Z,17.60
2019-06-10T10:24:19.691Z,17.80
2019-06-10T10:29:24.350Z,17.80
2019-06-10T10:34:29.406Z,17.90
2019-06-10T10:39:33.863Z,18.00
2019-06-10T10:44:38.497Z,18.00
2019-06-10T10:49:43.006Z,18.10
2019-06-10T10:54:47.929Z,18.30
2019-06-10T10:59:56.057Z,18.30
2019-06-10T11:05:00.018Z,18.60
2019-06-10T11:10:07.525Z,18.50
2019-06-10T11:15:15.240Z,18.30
2019-06-10T11:20:22.455Z,18.00
2019-06-10T11:25:27.107Z,17.90
2019-06-10T11:30:32.455Z,18.00
2019-06-10T11:35:37.353Z,18.00
2019-06-10T11:40:42.820Z,17.80
2019-06-10T11:45:52.674Z,17.70
2019-06-10T11:50:57.148Z,17.50
2019-06-10T11:56:02.398Z,17.70
2019-06-10T12:01:06.604Z,18.00
2019-06-10T12:06:13.579Z,18.40
2019-06-10T12:11:17.746Z,18.50
2019-06-10T12:21:29.805Z,19.10
2019-06-10T12:26:34.333Z,19.20
2019-06-10T12:31:38.992Z,19.40
2019-06-10T12:36:43.551Z,19.10
2019-06-10T12:41:48.021Z,19.10
2019-06-10T12:46:54.910Z,19.20
2019-06-10T12:51:59.271Z,19.10
2019-06-10T12:57:05.272Z,19.10
2019-06-10T13:02:21.281Z,19.00
2019-06-10T13:07:17.342Z,19.30
2019-06-10T13:12:22.926Z,19.30
2019-06-10T13:17:28.807Z,19.40
2019-06-10T13:22:33.386Z,19.20
2019-06-10T13:27:37.965Z,18.90
2019-06-10T13:32:43.470Z,18.90
2019-06-10T13:37:48.093Z,19.10
2019-06-10T13:42:52.812Z,19.10
2019-06-10T13:47:58.774Z,19.20
2019-06-10T13:53:05.384Z,19.30
2019-06-10T13:58:11.669Z,19.40
2019-06-10T14:03:16.538Z,19.60
2019-06-10T14:08:23.301Z,20.00
2019-06-10T14:13:27.515Z,20.10
2019-06-10T14:18:33.441Z,20.20
2019-06-10T14:23:38.627Z,20.40
2019-06-10T14:28:44.310Z,20.30
2019-06-10T14:33:49.205Z,20.40
2019-06-10T14:39:01.200Z,20.50
2019-06-10T14:44:06.760Z,21.10
2019-06-10T14:49:14.052Z,21.00
2019-06-10T14:54:18.409Z,20.90
2019-06-10T14:59:23.920Z,21.00
2019-06-10T15:04:28.712Z,20.80
2019-06-10T15:09:33.585Z,20.90
2019-06-10T15:14:38.145Z,20.90
2019-06-10T15:19:42.763Z,20.60
2019-06-10T15:24:47.364Z,20.70
2019-06-10T15:29:52.568Z,20.90
2019-06-10T15:34:57.361Z,21.10
2019-06-10T15:40:03.619Z,20.90
2019-06-10T15:45:09.811Z,21.00
2019-06-10T15:50:16.090Z,21.00
2019-06-10T15:55:47.749Z,20.90
2019-06-10T16:00:29.118Z,20.60
2019-06-10T16:05:34.433Z,19.90
2019-06-10T16:10:38.938Z,19.60
2019-06-10T16:15:43.573Z,19.10
2019-06-10T16:20:48.004Z,18.60
2019-06-10T16:25:53.452Z,18.30
2019-06-10T16:30:58.291Z,18.30
2019-06-10T16:36:03.089Z,18.40
2019-06-10T16:41:07.785Z,18.30
2019-06-10T16:46:12.210Z,18.10
2019-06-10T16:51:17.433Z,18.10
2019-06-10T16:56:24.411Z,17.90
2019-06-10T17:01:30.267Z,17.90
2019-06-10T17:06:34.734Z,17.90
2019-06-10T17:11:39.246Z,17.90
2019-06-10T17:16:43.780Z,18.00
2019-06-10T17:21:48.413Z,18.00
2019-06-10T17:26:53.297Z,18.00
2019-06-10T17:31:57.942Z,18.10
2019-06-10T17:37:03.152Z,17.80
2019-06-10T17:42:08.227Z,17.70
2019-06-10T17:47:14.266Z,17.90
2019-06-10T17:52:19.101Z,17.90
2019-06-10T17:57:28.300Z,18.00
2019-06-10T18:02:34.567Z,17.90
2019-06-10T18:07:39.002Z,17.60
2019-06-10T18:12:43.468Z,17.70
2019-06-10T18:17:47.976Z,17.70
2019-06-10T18:22:52.930Z,17.80
2019-06-10T18:27:57.666Z,17.80
2019-06-10T18:33:02.914Z,17.80
2019-06-10T18:38:07.503Z,17.80
2019-06-10T18:43:13.037Z,17.70
2019-06-10T18:48:17.625Z,17.40
2019-06-10T18:53:23.400Z,17.30
2019-06-10T18:58:28.306Z,17.30
2019-06-10T19:03:36.248Z,17.40
2019-06-10T19:08:41.341Z,17.40
2019-06-10T19:13:46.010Z,17.20
2019-06-10T19:18:52.870Z,17.20
2019-06-10T19:23:56.750Z,17.10
2019-06-10T19:29:03.565Z,17.10
2019-06-10T19:34:07.455Z,17.10
2019-06-10T19:39:13.172Z,17.10
2019-06-10T19:44:18.652Z,16.90
2019-06-10T19:49:23.237Z,16.90
2019-06-10T19:54:27.653Z,16.80
2019-06-10T19:59:48.456Z,16.60
2019-06-10T20:04:39.711Z,16.60
2019-06-10T20:09:46.135Z,16.60
2019-06-10T20:14:52.891Z,16.50
2019-06-10T20:19:57.670Z,16.60
2019-06-10T20:25:03.753Z,16.60
2019-06-10T20:30:23.760Z,16.60
2019-06-10T20:35:17.856Z,16.60
2019-06-10T20:40:22.408Z,16.60
2019-06-10T20:45:26.927Z,16.40
2019-06-10T20:50:32.307Z,16.30
2019-06-10T20:55:43.346Z,16.10
2019-06-10T21:00:51.019Z,16.10
2019-06-10T21:05:53.481Z,16.10
2019-06-10T21:10:57.719Z,16.30
2019-06-10T21:16:03.646Z,16.30
2019-06-10T21:21:08.519Z,16.40
2019-06-10T21:26:13.984Z,16.40
2019-06-10T21:31:18.742Z,16.30
2019-06-10T21:36:23.328Z,16.30
2019-06-10T21:41:27.834Z,16.30
2019-06-10T21:46:32.711Z,16.40
2019-06-10T21:51:45.296Z,16.50
2019-06-10T21:56:47.335Z,16.40
2019-06-10T22:01:51.755Z,16.30
2019-06-10T22:06:56.436Z,16.40
2019-06-10T22:12:02.904Z,16.30
2019-06-10T22:17:07.171Z,16.30
2019-06-10T22:22:12.947Z,16.60
2019-06-10T22:27:17.515Z,16.60
2019-06-10T22:32:22.155Z,16.50
2019-06-10T22:37:26.787Z,16.30
2019-06-10T22:42:32.736Z,16.20
2019-06-10T22:47:37.278Z,16.00
2019-06-10T22:52:42.596Z,15.90
2019-06-10T22:57:48.580Z,16.00
2019-06-10T23:02:55.826Z,15.90
2019-06-10T23:07:59.460Z,15.90
2019-06-10T23:13:03.959Z,15.80
2019-06-10T23:18:08.387Z,15.80
2019-06-10T23:23:13.143Z,15.70
2019-06-10T23:28:17.573Z,15.70
2019-06-10T23:33:22.937Z,15.80
2019-06-10T23:38:27.572Z,15.70
2019-06-10T23:43:33.010Z,15.60
2019-06-10T23:48:37.560Z,15.60
2019-06-10T23:53:42.051Z,15.50
2019-06-10T23:58:46.531Z,15.60
